Terminal Aerodrome Forecast
Issued by NWS Albany, NY

Current Version | Previous Version | Text Only | Print | Product List | Glossary On
Versions: 1 2 3 4 5 6 7 8 9 10 11 12 13 14 15
252
FTUS41 KALY 241721
TAFPOU
TAF
KPOU 241721Z 2418/2518 VRB04KT P6SM FEW050 BKN250
     FM250000 00000KT P6SM SCT120 BKN250
     FM250600 00000KT P6SM FEW050 BKN120 BKN250
     FM251100 20003KT P6SM SCT050 BKN100 BKN200 PROB30 2512/2518
      -SHRA BKN050=

USA.gov is the U.S. government's official web portal to all federal, state and local government web resources and services.